createdAt,value
2018-07-05T00:01:50.673Z,6.60
2018-07-05T00:04:31.539Z,7.23
2018-07-05T00:07:11.891Z,6.80
2018-07-05T00:09:52.503Z,7.50
2018-07-05T00:12:33.099Z,6.80
2018-07-05T00:15:13.405Z,6.80
2018-07-05T00:17:53.600Z,7.83
2018-07-05T00:20:34.011Z,7.40
2018-07-05T00:23:14.420Z,6.70
2018-07-05T00:25:55.111Z,7.23
2018-07-05T00:28:35.480Z,7.13
2018-07-05T00:31:15.736Z,7.80
2018-07-05T00:33:56.079Z,7.30
2018-07-05T00:36:36.317Z,7.53
2018-07-05T00:39:16.644Z,7.77
2018-07-05T00:41:56.907Z,6.77
2018-07-05T00:44:37.073Z,6.67
2018-07-05T00:47:17.296Z,7.00
2018-07-05T00:49:57.604Z,6.50
2018-07-05T00:52:37.892Z,6.80
2018-07-05T00:55:18.180Z,6.97
2018-07-05T00:57:58.508Z,6.67
2018-07-05T01:00:38.750Z,7.50
2018-07-05T01:03:19.217Z,6.50
2018-07-05T01:05:59.773Z,6.87
2018-07-05T01:08:40.043Z,7.07
2018-07-05T01:11:20.281Z,7.37
2018-07-05T01:14:00.496Z,6.70
2018-07-05T01:16:40.776Z,6.97
2018-07-05T01:19:21.156Z,6.97
2018-07-05T01:22:01.405Z,7.33
2018-07-05T01:24:41.611Z,6.93
2018-07-05T01:27:21.947Z,7.10
2018-07-05T01:30:02.287Z,6.70
2018-07-05T01:32:42.530Z,6.67
2018-07-05T01:35:22.875Z,6.40
2018-07-05T01:38:03.198Z,6.73
2018-07-05T01:40:43.453Z,6.60
2018-07-05T01:43:23.849Z,6.93
2018-07-05T01:46:04.064Z,6.07
2018-07-05T01:48:44.459Z,6.03
2018-07-05T01:51:24.866Z,6.50
2018-07-05T01:54:05.151Z,6.73
2018-07-05T01:56:45.446Z,6.57
2018-07-05T01:59:25.798Z,6.70
2018-07-05T02:02:06.263Z,6.47
2018-07-05T02:04:47.067Z,6.43
2018-07-05T02:07:27.621Z,7.13
2018-07-05T02:10:07.975Z,7.20
2018-07-05T02:12:48.283Z,6.80
2018-07-05T02:15:28.679Z,6.97
2018-07-05T02:18:08.903Z,6.70
2018-07-05T02:20:49.125Z,7.13
2018-07-05T02:23:29.680Z,6.57
2018-07-05T02:26:09.893Z,6.80
2018-07-05T02:28:50.266Z,7.20
2018-07-05T02:31:30.611Z,8.20
2018-07-05T02:34:11.938Z,8.10
2018-07-05T02:36:59.076Z,7.50
2018-07-05T02:39:49.063Z,8.13
2018-07-05T02:45:16.031Z,8.00
2018-07-05T02:47:56.411Z,7.97
2018-07-05T02:50:36.910Z,8.10
2018-07-05T02:53:17.408Z,7.93
2018-07-05T02:55:57.610Z,7.87
2018-07-05T02:58:38.014Z,8.17
2018-07-05T03:01:18.245Z,7.97
2018-07-05T03:03:58.497Z,7.90
2018-07-05T03:06:38.748Z,8.60
2018-07-05T03:09:18.884Z,8.73
2018-07-05T03:11:59.230Z,8.60
2018-07-05T03:14:39.483Z,8.97
2018-07-05T03:17:19.839Z,6.73
2018-07-05T03:19:59.910Z,6.50
2018-07-05T03:22:40.212Z,6.10
2018-07-05T03:25:20.544Z,5.97
2018-07-05T03:28:00.893Z,6.50
2018-07-05T03:30:41.337Z,5.50
2018-07-05T03:33:21.713Z,5.37
2018-07-05T03:36:01.898Z,5.47
2018-07-05T03:38:42.450Z,4.90
2018-07-05T03:41:22.690Z,4.87
2018-07-05T03:44:03.030Z,5.47
2018-07-05T03:46:43.449Z,4.30
2018-07-05T03:49:23.691Z,4.10
2018-07-05T03:52:04.028Z,4.50
2018-07-05T03:54:44.479Z,4.93
2018-07-05T03:57:24.845Z,5.03
2018-07-05T04:00:05.156Z,4.57
2018-07-05T04:02:45.561Z,5.33
2018-07-05T04:05:26.014Z,5.07
2018-07-05T04:08:06.303Z,6.13
2018-07-05T04:10:46.580Z,6.00
2018-07-05T04:13:26.759Z,5.50
2018-07-05T04:16:07.093Z,5.93
2018-07-05T04:18:47.291Z,6.10
2018-07-05T04:21:27.651Z,5.43
2018-07-05T04:24:08.040Z,5.47
2018-07-05T04:26:48.173Z,5.80
2018-07-05T04:29:28.603Z,5.20
2018-07-05T04:32:09.058Z,4.40
2018-07-05T04:34:57.087Z,4.80
2018-07-05T04:37:40.853Z,4.80
2018-07-05T04:40:21.172Z,4.77
2018-07-05T04:43:01.559Z,5.37
2018-07-05T04:45:42.057Z,6.10
2018-07-05T04:48:22.507Z,5.93
2018-07-05T04:51:02.840Z,7.03
2018-07-05T04:53:43.184Z,7.07
2018-07-05T04:56:23.507Z,7.27
2018-07-05T04:59:03.668Z,7.37
2018-07-05T05:01:44.071Z,8.30
2018-07-05T05:04:24.437Z,8.97
2018-07-05T05:07:04.783Z,9.37
2018-07-05T05:09:45.100Z,9.77
2018-07-05T05:12:25.426Z,8.33
2018-07-05T05:15:05.787Z,6.37
2018-07-05T05:17:46.245Z,6.07
2018-07-05T05:20:26.569Z,6.00
2018-07-05T05:23:06.965Z,5.37
2018-07-05T05:25:47.200Z,6.17
2018-07-05T05:28:27.522Z,6.87
2018-07-05T05:31:07.845Z,9.00
2018-07-05T05:33:48.139Z,9.53
2018-07-05T05:36:28.417Z,10.10
2018-07-05T05:39:08.754Z,11.17
2018-07-05T05:41:48.892Z,10.27
2018-07-05T05:44:29.262Z,9.73
2018-07-05T05:47:09.535Z,7.97
2018-07-05T05:49:50.178Z,8.00
2018-07-05T05:52:32.190Z,7.37
2018-07-05T05:55:13.286Z,7.97
2018-07-05T05:57:54.121Z,7.50
2018-07-05T06:00:34.578Z,7.20
2018-07-05T06:03:14.892Z,7.13
2018-07-05T06:05:55.391Z,7.77
2018-07-05T06:08:35.867Z,7.33
2018-07-05T06:11:16.329Z,10.53
2018-07-05T06:13:56.631Z,7.80
2018-07-05T06:16:36.911Z,8.53
2018-07-05T06:19:17.351Z,7.37
2018-07-05T06:21:58.631Z,8.13
2018-07-05T06:24:39.058Z,8.60
2018-07-05T06:27:19.418Z,8.60
2018-07-05T06:29:59.779Z,7.83
2018-07-05T06:32:40.067Z,8.70
2018-07-05T06:35:20.368Z,8.50
2018-07-05T06:38:00.771Z,8.67
2018-07-05T06:40:41.159Z,9.20
2018-07-05T06:43:21.384Z,11.63
2018-07-05T06:46:01.589Z,11.70
2018-07-05T06:48:41.968Z,11.80
2018-07-05T06:51:22.529Z,9.90
2018-07-05T06:54:02.837Z,10.30
2018-07-05T06:56:48.916Z,10.80
2018-07-05T06:59:31.812Z,11.07
2018-07-05T07:02:12.174Z,11.20
2018-07-05T07:04:52.535Z,12.07
2018-07-05T07:07:32.870Z,11.23
2018-07-05T07:10:13.194Z,11.10
2018-07-05T07:12:53.654Z,11.97
2018-07-05T07:15:34.103Z,10.80
2018-07-05T07:18:14.472Z,9.90
2018-07-05T07:20:54.895Z,10.43
2018-07-05T07:23:35.162Z,9.17
2018-07-05T07:26:15.530Z,10.27
2018-07-05T07:28:55.939Z,9.33
2018-07-05T07:31:36.305Z,9.47
2018-07-05T07:34:16.782Z,10.03
2018-07-05T07:36:57.152Z,10.10
2018-07-05T07:39:37.471Z,10.00
2018-07-05T07:42:05.398Z,10.13
2018-07-05T07:44:33.300Z,10.70
2018-07-05T07:47:01.230Z,10.63
2018-07-05T07:49:29.137Z,10.77
2018-07-05T07:51:57.074Z,10.20
2018-07-05T07:54:24.984Z,10.60
2018-07-05T07:56:52.930Z,11.17
2018-07-05T07:59:20.864Z,12.83
2018-07-05T08:01:48.812Z,12.50
2018-07-05T08:04:16.764Z,12.00
2018-07-05T08:06:44.728Z,12.60
2018-07-05T08:09:12.633Z,13.63
2018-07-05T08:11:40.555Z,15.27
2018-07-05T08:14:08.759Z,14.83
2018-07-05T08:16:36.696Z,14.77
2018-07-05T08:19:04.603Z,14.43
2018-07-05T08:21:32.554Z,13.77
2018-07-05T08:24:00.462Z,13.33
2018-07-05T08:26:28.389Z,13.50
2018-07-05T08:28:56.297Z,14.00
2018-07-05T08:31:24.274Z,16.20
2018-07-05T08:33:52.199Z,14.63
2018-07-05T08:36:20.124Z,17.03
2018-07-05T08:38:48.098Z,18.73
2018-07-05T08:41:16.046Z,16.73
2018-07-05T08:43:43.993Z,17.73
2018-07-05T08:46:11.914Z,16.53
2018-07-05T08:48:39.904Z,16.90
2018-07-05T08:51:07.834Z,16.10
2018-07-05T08:53:35.783Z,16.67
2018-07-05T08:56:03.737Z,16.40
2018-07-05T08:58:31.670Z,15.77
2018-07-05T09:00:59.580Z,15.47
2018-07-05T09:03:27.522Z,24.30
2018-07-05T09:05:55.460Z,15.93
2018-07-05T09:08:23.386Z,17.80
2018-07-05T09:10:51.326Z,16.90
2018-07-05T09:13:19.264Z,17.90
2018-07-05T09:15:47.214Z,18.40
2018-07-05T09:18:15.201Z,17.07
2018-07-05T09:20:43.243Z,16.53
2018-07-05T09:23:11.227Z,16.50
2018-07-05T09:25:39.135Z,14.83
2018-07-05T09:28:07.042Z,15.80
2018-07-05T09:30:35.003Z,16.90
2018-07-05T09:33:02.968Z,16.27
2018-07-05T09:35:30.877Z,16.73
2018-07-05T09:37:58.791Z,14.80
2018-07-05T09:40:26.738Z,17.50
2018-07-05T09:42:54.644Z,14.80
2018-07-05T09:45:22.681Z,15.67
2018-07-05T09:47:50.591Z,15.00
2018-07-05T09:50:18.549Z,14.03
2018-07-05T09:52:46.488Z,16.27
2018-07-05T09:55:14.422Z,15.17
2018-07-05T09:57:42.342Z,14.97
2018-07-05T10:00:11.970Z,13.57
2018-07-05T10:02:40.704Z,13.80
2018-07-05T10:05:08.648Z,14.70
2018-07-05T10:07:36.552Z,13.78
2018-07-05T10:10:04.498Z,13.30
2018-07-05T10:12:32.402Z,12.90
2018-07-05T10:15:00.328Z,12.85
2018-07-05T10:17:28.325Z,22.20
2018-07-05T10:19:56.298Z,13.05
2018-07-05T10:22:24.261Z,12.05
2018-07-05T10:24:52.198Z,12.50
2018-07-05T10:27:20.150Z,12.50
2018-07-05T10:30:00.449Z,11.03
2018-07-05T10:32:40.797Z,12.23
2018-07-05T10:35:08.744Z,12.65
2018-07-05T10:37:36.673Z,12.00
2018-07-05T10:40:16.978Z,12.00
2018-07-05T10:42:57.436Z,13.05
2018-07-05T10:45:37.631Z,10.78
2018-07-05T10:48:17.956Z,11.48
2018-07-05T10:50:58.213Z,10.75
2018-07-05T10:53:38.439Z,9.50
2018-07-05T10:56:18.783Z,9.55
2018-07-05T10:58:59.171Z,10.75
2018-07-05T11:01:39.598Z,9.60
2018-07-05T11:04:19.928Z,9.55
2018-07-05T11:07:00.246Z,8.48
2018-07-05T11:09:40.721Z,8.45
2018-07-05T11:12:21.126Z,7.37
2018-07-05T11:15:01.428Z,8.00
2018-07-05T11:17:41.518Z,7.12
2018-07-05T11:20:21.949Z,6.45
2018-07-05T11:23:02.270Z,6.65
2018-07-05T11:25:42.584Z,6.37
2018-07-05T11:28:22.982Z,6.37
2018-07-05T11:31:03.292Z,5.53
2018-07-05T11:33:43.848Z,6.17
2018-07-05T11:36:24.358Z,5.53
2018-07-05T11:39:05.836Z,5.22
2018-07-05T11:41:46.843Z,5.25
2018-07-05T11:44:27.322Z,6.03
2018-07-05T11:47:07.691Z,5.67
2018-07-05T11:49:48.016Z,5.67
2018-07-05T11:52:28.211Z,4.85
2018-07-05T11:55:08.342Z,5.05
2018-07-05T11:57:48.763Z,4.78
2018-07-05T12:00:29.085Z,4.80
2018-07-05T12:03:09.459Z,4.42
2018-07-05T12:05:49.890Z,4.00
2018-07-05T12:08:30.322Z,4.40
2018-07-05T12:11:10.556Z,3.50
2018-07-05T12:13:50.923Z,4.25
2018-07-05T12:16:31.118Z,4.67
2018-07-05T12:19:11.625Z,4.25
2018-07-05T12:21:52.115Z,4.00
2018-07-05T12:24:32.340Z,4.45
2018-07-05T12:27:12.591Z,4.53
2018-07-05T12:29:52.810Z,4.72
2018-07-05T12:32:33.100Z,4.40
2018-07-05T12:35:13.480Z,4.70
2018-07-05T12:37:53.781Z,5.17
2018-07-05T12:40:34.080Z,5.80
2018-07-05T12:43:14.508Z,6.28
2018-07-05T12:45:54.777Z,4.80
2018-07-05T12:48:34.966Z,7.95
2018-07-05T12:51:15.320Z,5.80
2018-07-05T12:53:55.656Z,5.95
2018-07-05T12:56:36.007Z,4.65
2018-07-05T12:59:16.249Z,3.80
2018-07-05T13:01:56.516Z,3.75
2018-07-05T13:04:36.901Z,3.98
2018-07-05T13:07:17.231Z,4.22
2018-07-05T13:09:57.583Z,3.60
2018-07-05T13:12:37.904Z,3.27
2018-07-05T13:15:18.186Z,4.22
2018-07-05T13:17:58.493Z,4.20
2018-07-05T13:20:38.683Z,3.40
2018-07-05T13:23:18.923Z,3.40
2018-07-05T13:25:59.305Z,3.72
2018-07-05T13:28:39.809Z,3.20
2018-07-05T13:31:20.158Z,3.30
2018-07-05T13:34:00.279Z,3.42
2018-07-05T13:36:40.431Z,3.10
2018-07-05T13:39:20.844Z,3.33
2018-07-05T13:42:01.000Z,3.90
2018-07-05T13:44:41.168Z,3.80
2018-07-05T13:47:21.353Z,3.20
2018-07-05T13:50:01.593Z,3.22
2018-07-05T13:52:41.831Z,3.70
2018-07-05T13:55:22.105Z,5.20
2018-07-05T13:58:02.261Z,4.78
2018-07-05T14:00:42.644Z,4.60
2018-07-05T14:03:22.725Z,3.92
2018-07-05T14:06:03.176Z,3.70
2018-07-05T14:08:43.310Z,3.50
2018-07-05T14:11:23.619Z,2.90
2018-07-05T14:14:03.840Z,3.42
2018-07-05T14:16:44.212Z,2.72
2018-07-05T14:19:24.545Z,3.20
2018-07-05T14:22:04.748Z,2.83
2018-07-05T14:24:45.053Z,2.72
2018-07-05T14:27:25.359Z,2.45
2018-07-05T14:30:05.582Z,3.12
2018-07-05T14:32:45.948Z,2.22
2018-07-05T14:35:26.390Z,1.90
2018-07-05T14:38:06.656Z,1.90
2018-07-05T14:40:47.142Z,1.95
2018-07-05T14:43:27.461Z,2.83
2018-07-05T14:46:07.724Z,2.15
2018-07-05T14:48:47.901Z,2.62
2018-07-05T14:51:28.302Z,1.95
2018-07-05T14:54:08.678Z,2.30
2018-07-05T14:56:48.829Z,2.40
2018-07-05T14:59:29.198Z,2.47
2018-07-05T15:02:09.608Z,2.20
2018-07-05T15:04:49.780Z,2.75
2018-07-05T15:07:29.958Z,2.83
2018-07-05T15:10:10.323Z,2.55
2018-07-05T15:12:50.605Z,2.70
2018-07-05T15:15:31.002Z,3.15
2018-07-05T15:18:11.340Z,3.10
2018-07-05T15:20:51.552Z,2.22
2018-07-05T15:23:31.948Z,2.70
2018-07-05T15:26:12.340Z,3.10
2018-07-05T15:28:52.735Z,2.72
2018-07-05T15:31:33.281Z,2.90
2018-07-05T15:34:13.386Z,4.12
2018-07-05T15:36:53.783Z,2.92
2018-07-05T15:39:33.918Z,2.67
2018-07-05T15:42:14.194Z,2.75
2018-07-05T15:44:54.239Z,3.37
2018-07-05T15:47:34.484Z,2.62
2018-07-05T15:50:14.780Z,3.08
2018-07-05T15:52:55.051Z,3.33
2018-07-05T15:55:35.439Z,3.15
2018-07-05T15:58:15.869Z,3.20
2018-07-05T16:00:56.138Z,2.90
2018-07-05T16:03:36.464Z,2.40
2018-07-05T16:06:16.869Z,2.80
2018-07-05T16:08:57.262Z,2.58
2018-07-05T16:11:37.466Z,2.83
2018-07-05T16:14:17.709Z,2.50
2018-07-05T16:16:58.078Z,3.15
2018-07-05T16:19:38.338Z,2.75
2018-07-05T16:22:18.588Z,2.87
2018-07-05T16:24:58.758Z,2.77
2018-07-05T16:27:38.946Z,2.62
2018-07-05T16:30:19.350Z,3.17
2018-07-05T16:32:59.760Z,2.60
2018-07-05T16:35:40.044Z,2.58
2018-07-05T16:38:20.367Z,2.87
2018-07-05T16:41:00.737Z,2.72
2018-07-05T16:43:41.149Z,2.92
2018-07-05T16:46:21.443Z,3.27
2018-07-05T16:49:01.782Z,2.95
2018-07-05T16:51:42.139Z,2.60
2018-07-05T16:54:22.543Z,5.33
2018-07-05T16:57:02.718Z,2.83
2018-07-05T16:59:42.941Z,3.50
2018-07-05T17:02:23.057Z,2.30
2018-07-05T17:05:03.522Z,2.55
2018-07-05T17:07:44.026Z,5.22
2018-07-05T17:10:24.223Z,2.37
2018-07-05T17:13:04.459Z,2.42
2018-07-05T17:15:44.878Z,2.75
2018-07-05T17:18:25.173Z,2.87
2018-07-05T17:21:05.433Z,2.50
2018-07-05T17:23:45.696Z,5.62
2018-07-05T17:26:26.164Z,2.77
2018-07-05T17:29:06.309Z,2.10
2018-07-05T17:31:46.881Z,2.02
2018-07-05T17:34:27.301Z,2.50
2018-07-05T17:37:07.533Z,2.50
2018-07-05T17:39:47.883Z,2.90
2018-07-05T17:42:28.209Z,2.85
2018-07-05T17:45:08.507Z,2.67
2018-07-05T17:47:48.944Z,3.27
2018-07-05T17:50:29.322Z,2.83
2018-07-05T17:53:09.624Z,3.30
2018-07-05T17:55:49.772Z,3.00
2018-07-05T17:58:30.103Z,2.70
2018-07-05T18:01:10.416Z,1.90
2018-07-05T18:03:50.610Z,2.58
2018-07-05T18:06:30.920Z,3.22
2018-07-05T18:09:11.232Z,2.58
2018-07-05T18:11:51.559Z,2.65
2018-07-05T18:14:31.774Z,2.92
2018-07-05T18:17:12.199Z,2.58
2018-07-05T18:19:52.574Z,2.42
2018-07-05T18:22:32.965Z,2.80
2018-07-05T18:25:13.184Z,2.55
2018-07-05T18:27:53.334Z,2.62
2018-07-05T18:30:33.534Z,2.87
2018-07-05T18:33:13.858Z,2.75
2018-07-05T18:35:54.204Z,3.42
2018-07-05T18:38:34.499Z,3.17
2018-07-05T18:41:14.762Z,2.85
2018-07-05T18:43:55.112Z,3.35
2018-07-05T18:46:35.464Z,3.50
2018-07-05T18:49:15.720Z,3.47
2018-07-05T18:51:55.879Z,4.10
2018-07-05T18:54:36.233Z,3.90
2018-07-05T18:57:16.393Z,6.78
2018-07-05T18:59:56.726Z,3.92
2018-07-05T19:02:37.141Z,3.72
2018-07-05T19:05:17.276Z,3.95
2018-07-05T19:07:57.336Z,4.35
2018-07-05T19:10:37.848Z,4.10
2018-07-05T19:13:18.209Z,3.55
2018-07-05T19:15:58.444Z,4.30
2018-07-05T19:18:38.673Z,3.60
2018-07-05T19:21:18.929Z,3.50
2018-07-05T19:23:59.477Z,3.60
2018-07-05T19:26:39.960Z,2.97
2018-07-05T19:29:20.284Z,4.47
2018-07-05T19:32:00.434Z,3.13
2018-07-05T19:34:40.890Z,3.00
2018-07-05T19:37:21.252Z,3.40
2018-07-05T19:40:01.445Z,3.10
2018-07-05T19:42:41.673Z,2.60
2018-07-05T19:45:21.967Z,2.63
2018-07-05T19:48:02.300Z,2.70
2018-07-05T19:50:42.572Z,2.20
2018-07-05T19:53:22.925Z,2.07
2018-07-05T19:56:03.307Z,2.00
2018-07-05T19:58:43.848Z,2.10
2018-07-05T20:01:24.313Z,2.10
2018-07-05T20:04:04.520Z,2.13
2018-07-05T20:06:45.243Z,2.87
2018-07-05T20:09:25.891Z,2.13
2018-07-05T20:12:07.312Z,1.73
2018-07-05T20:14:47.990Z,1.53
2018-07-05T20:17:28.376Z,1.73
2018-07-05T20:20:08.749Z,1.70
2018-07-05T20:22:49.209Z,2.20
2018-07-05T20:25:29.463Z,2.00
2018-07-05T20:28:10.000Z,2.17
2018-07-05T20:30:50.407Z,1.80
2018-07-05T20:33:30.751Z,2.53
2018-07-05T20:36:10.948Z,1.80
2018-07-05T20:38:51.328Z,2.00
2018-07-05T20:41:31.686Z,1.80
2018-07-05T20:44:12.019Z,2.10
2018-07-05T20:46:52.305Z,2.10
2018-07-05T20:49:32.749Z,1.90
2018-07-05T20:52:13.517Z,1.60
2018-07-05T20:54:54.007Z,2.10
2018-07-05T20:57:34.291Z,1.90
2018-07-05T21:00:14.508Z,1.50
2018-07-05T21:02:54.904Z,1.80
2018-07-05T21:05:35.215Z,1.80
2018-07-05T21:08:15.731Z,2.10
2018-07-05T21:10:56.265Z,1.80
2018-07-05T21:13:36.528Z,2.00
2018-07-05T21:16:16.968Z,2.20
2018-07-05T21:18:57.414Z,2.07
2018-07-05T21:21:37.655Z,1.97
2018-07-05T21:24:17.774Z,2.13
2018-07-05T21:26:58.173Z,2.10
2018-07-05T21:29:38.599Z,2.30
2018-07-05T21:32:18.941Z,2.00
2018-07-05T21:34:59.287Z,2.00
2018-07-05T21:37:39.596Z,2.07
2018-07-05T21:40:19.840Z,2.77
2018-07-05T21:43:00.181Z,2.50
2018-07-05T21:45:40.408Z,2.30
2018-07-05T21:48:20.752Z,2.63
2018-07-05T21:51:00.944Z,2.27
2018-07-05T21:53:41.269Z,2.50
2018-07-05T21:56:21.554Z,2.00
2018-07-05T21:59:01.770Z,2.10
2018-07-05T22:01:42.084Z,2.33
2018-07-05T22:04:22.282Z,2.60
2018-07-05T22:07:02.504Z,2.03
2018-07-05T22:09:42.861Z,2.40
2018-07-05T22:12:23.093Z,1.90
2018-07-05T22:15:03.226Z,2.30
2018-07-05T22:17:48.896Z,1.97
2018-07-05T22:20:34.783Z,1.90
2018-07-05T22:23:20.578Z,1.87
2018-07-05T22:26:06.386Z,2.50
2018-07-05T22:28:52.375Z,2.03
2018-07-05T22:31:33.848Z,2.17
2018-07-05T22:34:14.539Z,2.30
2018-07-05T22:36:54.955Z,2.03
2018-07-05T22:39:35.289Z,2.03
2018-07-05T22:42:15.513Z,1.93
2018-07-05T22:44:55.861Z,2.00
2018-07-05T22:47:36.180Z,1.83
2018-07-05T22:50:16.350Z,2.60
2018-07-05T22:52:56.789Z,2.57
2018-07-05T22:55:37.051Z,2.40
2018-07-05T22:58:17.363Z,2.93
2018-07-05T23:00:58.287Z,2.50
2018-07-05T23:03:38.942Z,2.20
2018-07-05T23:06:19.222Z,2.00
2018-07-05T23:08:59.606Z,2.67
2018-07-05T23:11:40.065Z,2.20
2018-07-05T23:14:20.476Z,2.33
2018-07-05T23:17:01.116Z,2.30
2018-07-05T23:19:42.148Z,2.27
2018-07-05T23:22:23.004Z,2.57
2018-07-05T23:25:03.352Z,2.40
2018-07-05T23:27:43.787Z,2.63
2018-07-05T23:30:24.068Z,2.63
2018-07-05T23:33:04.377Z,2.70
2018-07-05T23:35:44.773Z,2.43
2018-07-05T23:38:25.094Z,2.47
2018-07-05T23:41:05.289Z,2.40
2018-07-05T23:43:45.752Z,2.50
2018-07-05T23:46:26.123Z,2.00
2018-07-05T23:49:06.502Z,2.53
2018-07-05T23:51:46.913Z,2.67
2018-07-05T23:54:27.232Z,2.33
2018-07-05T23:57:07.608Z,2.37
2018-07-05T23:59:48.181Z,2.90
